sensor_id;sensor_type;location;lat;lon;timestamp;P1;durP1;ratioP1;P2;durP2;ratioP2
19343;SDS011;9808;52.402;16.678;2024-01-07T00:00:09;7.57;;;3.27;;
19343;SDS011;9808;52.402;16.678;2024-01-07T00:02:36;10.97;;;4.63;;
19343;SDS011;9808;52.402;16.678;2024-01-07T00:05:04;15.60;;;4.60;;
19343;SDS011;9808;52.402;16.678;2024-01-07T00:07:31;13.13;;;4.60;;
19343;SDS011;9808;52.402;16.678;2024-01-07T00:09:58;13.07;;;3.83;;
19343;SDS011;9808;52.402;16.678;2024-01-07T00:12:26;8.13;;;3.60;;
19343;SDS011;9808;52.402;16.678;2024-01-07T00:14:53;12.80;;;4.80;;
19343;SDS011;9808;52.402;16.678;2024-01-07T00:17:20;11.23;;;4.53;;
19343;SDS011;9808;52.402;16.678;2024-01-07T00:19:47;11.50;;;4.47;;
19343;SDS011;9808;52.402;16.678;2024-01-07T00:22:15;10.67;;;4.30;;
19343;SDS011;9808;52.402;16.678;2024-01-07T00:24:42;8.60;;;3.53;;
19343;SDS011;9808;52.402;16.678;2024-01-07T00:27:09;8.70;;;3.90;;
19343;SDS011;9808;52.402;16.678;2024-01-07T00:29:37;10.67;;;4.07;;
19343;SDS011;9808;52.402;16.678;2024-01-07T00:32:04;8.80;;;3.67;;
19343;SDS011;9808;52.402;16.678;2024-01-07T00:34:31;9.50;;;4.10;;
19343;SDS011;9808;52.402;16.678;2024-01-07T00:36:58;6.73;;;3.53;;
19343;SDS011;9808;52.402;16.678;2024-01-07T00:39:26;8.67;;;3.80;;
19343;SDS011;9808;52.402;16.678;2024-01-07T00:41:54;8.83;;;3.90;;
19343;SDS011;9808;52.402;16.678;2024-01-07T00:44:21;9.20;;;3.73;;
19343;SDS011;9808;52.402;16.678;2024-01-07T00:46:48;8.57;;;3.87;;
19343;SDS011;9808;52.402;16.678;2024-01-07T00:49:15;11.47;;;4.10;;
19343;SDS011;9808;52.402;16.678;2024-01-07T00:51:43;7.93;;;2.73;;
19343;SDS011;9808;52.402;16.678;2024-01-07T00:54:10;14.60;;;3.40;;
19343;SDS011;9808;52.402;16.678;2024-01-07T00:56:38;9.70;;;3.47;;
19343;SDS011;9808;52.402;16.678;2024-01-07T00:59:05;9.70;;;4.20;;
19343;SDS011;9808;52.402;16.678;2024-01-07T01:01:32;9.37;;;2.93;;
19343;SDS011;9808;52.402;16.678;2024-01-07T01:03:59;7.73;;;3.17;;
19343;SDS011;9808;52.402;16.678;2024-01-07T01:06:27;10.27;;;2.97;;
19343;SDS011;9808;52.402;16.678;2024-01-07T01:08:54;6.73;;;2.77;;
19343;SDS011;9808;52.402;16.678;2024-01-07T01:11:21;11.97;;;2.90;;
19343;SDS011;9808;52.402;16.678;2024-01-07T01:13:48;7.53;;;2.93;;
19343;SDS011;9808;52.402;16.678;2024-01-07T01:16:15;9.53;;;3.33;;
19343;SDS011;9808;52.402;16.678;2024-01-07T01:18:44;7.13;;;2.80;;
19343;SDS011;9808;52.402;16.678;2024-01-07T01:21:11;10.43;;;2.77;;
19343;SDS011;9808;52.402;16.678;2024-01-07T01:23:39;7.83;;;2.80;;
19343;SDS011;9808;52.402;16.678;2024-01-07T01:26:06;5.40;;;2.40;;
19343;SDS011;9808;52.402;16.678;2024-01-07T01:28:33;13.67;;;3.07;;
19343;SDS011;9808;52.402;16.678;2024-01-07T01:31:00;7.77;;;3.13;;
19343;SDS011;9808;52.402;16.678;2024-01-07T01:33:28;7.40;;;2.97;;
19343;SDS011;9808;52.402;16.678;2024-01-07T01:35:56;6.27;;;2.97;;
19343;SDS011;9808;52.402;16.678;2024-01-07T01:38:23;9.30;;;3.10;;
19343;SDS011;9808;52.402;16.678;2024-01-07T01:40:53;4.83;;;2.00;;
19343;SDS011;9808;52.402;16.678;2024-01-07T01:43:24;7.43;;;2.80;;
19343;SDS011;9808;52.402;16.678;2024-01-07T01:45:55;7.17;;;2.37;;
19343;SDS011;9808;52.402;16.678;2024-01-07T01:48:22;6.63;;;2.53;;
19343;SDS011;9808;52.402;16.678;2024-01-07T01:50:51;5.87;;;2.63;;
19343;SDS011;9808;52.402;16.678;2024-01-07T01:53:20;6.80;;;2.90;;
19343;SDS011;9808;52.402;16.678;2024-01-07T01:55:47;7.13;;;2.80;;
19343;SDS011;9808;52.402;16.678;2024-01-07T01:58:15;7.50;;;2.43;;
19343;SDS011;9808;52.402;16.678;2024-01-07T02:00:43;5.87;;;3.20;;
19343;SDS011;9808;52.402;16.678;2024-01-07T02:03:11;6.90;;;2.63;;
19343;SDS011;9808;52.402;16.678;2024-01-07T02:05:38;7.33;;;3.20;;
19343;SDS011;9808;52.402;16.678;2024-01-07T02:08:06;10.30;;;3.23;;
19343;SDS011;9808;52.402;16.678;2024-01-07T02:10:33;8.00;;;3.40;;
19343;SDS011;9808;52.402;16.678;2024-01-07T02:13:05;15.17;;;3.10;;
19343;SDS011;9808;52.402;16.678;2024-01-07T02:15:33;7.57;;;3.17;;
19343;SDS011;9808;52.402;16.678;2024-01-07T02:18:00;11.43;;;3.73;;
19343;SDS011;9808;52.402;16.678;2024-01-07T02:20:28;6.13;;;2.90;;
19343;SDS011;9808;52.402;16.678;2024-01-07T02:22:56;7.17;;;3.20;;
19343;SDS011;9808;52.402;16.678;2024-01-07T02:25:24;7.87;;;2.70;;
19343;SDS011;9808;52.402;16.678;2024-01-07T02:27:51;8.87;;;3.23;;
19343;SDS011;9808;52.402;16.678;2024-01-07T02:30:18;6.70;;;2.80;;
19343;SDS011;9808;52.402;16.678;2024-01-07T02:32:45;5.60;;;2.50;;
19343;SDS011;9808;52.402;16.678;2024-01-07T02:35:13;8.10;;;2.90;;
19343;SDS011;9808;52.402;16.678;2024-01-07T02:37:40;6.80;;;3.00;;
19343;SDS011;9808;52.402;16.678;2024-01-07T02:40:07;7.27;;;2.47;;
19343;SDS011;9808;52.402;16.678;2024-01-07T02:42:35;6.07;;;2.73;;
19343;SDS011;9808;52.402;16.678;2024-01-07T02:45:02;7.80;;;2.70;;
19343;SDS011;9808;52.402;16.678;2024-01-07T02:47:29;8.07;;;3.30;;
19343;SDS011;9808;52.402;16.678;2024-01-07T02:49:56;6.43;;;2.40;;
19343;SDS011;9808;52.402;16.678;2024-01-07T02:52:24;6.57;;;2.50;;
19343;SDS011;9808;52.402;16.678;2024-01-07T02:54:51;6.47;;;2.60;;
19343;SDS011;9808;52.402;16.678;2024-01-07T02:57:18;6.00;;;2.50;;
19343;SDS011;9808;52.402;16.678;2024-01-07T02:59:46;7.03;;;2.43;;
19343;SDS011;9808;52.402;16.678;2024-01-07T03:02:13;4.97;;;2.23;;
19343;SDS011;9808;52.402;16.678;2024-01-07T03:04:40;5.63;;;2.57;;
19343;SDS011;9808;52.402;16.678;2024-01-07T03:07:07;5.53;;;2.43;;
19343;SDS011;9808;52.402;16.678;2024-01-07T03:09:34;4.63;;;1.73;;
19343;SDS011;9808;52.402;16.678;2024-01-07T03:12:02;7.40;;;2.63;;
19343;SDS011;9808;52.402;16.678;2024-01-07T03:14:29;4.80;;;2.13;;
19343;SDS011;9808;52.402;16.678;2024-01-07T03:16:56;5.03;;;2.40;;
19343;SDS011;9808;52.402;16.678;2024-01-07T03:19:23;6.93;;;2.57;;
19343;SDS011;9808;52.402;16.678;2024-01-07T03:21:51;5.80;;;2.37;;
19343;SDS011;9808;52.402;16.678;2024-01-07T03:24:18;5.67;;;2.33;;
19343;SDS011;9808;52.402;16.678;2024-01-07T03:26:45;5.53;;;2.73;;
19343;SDS011;9808;52.402;16.678;2024-01-07T03:29:12;6.43;;;2.70;;
19343;SDS011;9808;52.402;16.678;2024-01-07T03:31:39;6.50;;;2.80;;
19343;SDS011;9808;52.402;16.678;2024-01-07T03:34:07;6.03;;;2.27;;
19343;SDS011;9808;52.402;16.678;2024-01-07T03:36:34;6.30;;;2.23;;
19343;SDS011;9808;52.402;16.678;2024-01-07T03:39:01;5.77;;;2.43;;
19343;SDS011;9808;52.402;16.678;2024-01-07T03:41:28;5.00;;;2.27;;
19343;SDS011;9808;52.402;16.678;2024-01-07T03:43:55;6.17;;;2.80;;
19343;SDS011;9808;52.402;16.678;2024-01-07T03:46:23;5.77;;;2.70;;
19343;SDS011;9808;52.402;16.678;2024-01-07T03:48:50;5.90;;;2.60;;
19343;SDS011;9808;52.402;16.678;2024-01-07T03:51:17;8.17;;;3.27;;
19343;SDS011;9808;52.402;16.678;2024-01-07T03:53:44;7.80;;;2.63;;
19343;SDS011;9808;52.402;16.678;2024-01-07T03:56:12;5.17;;;2.53;;
19343;SDS011;9808;52.402;16.678;2024-01-07T03:58:39;7.30;;;2.93;;
19343;SDS011;9808;52.402;16.678;2024-01-07T04:01:06;4.83;;;2.30;;
19343;SDS011;9808;52.402;16.678;2024-01-07T04:03:33;5.67;;;2.67;;
19343;SDS011;9808;52.402;16.678;2024-01-07T04:06:01;5.70;;;2.47;;
19343;SDS011;9808;52.402;16.678;2024-01-07T04:08:28;7.77;;;2.93;;
19343;SDS011;9808;52.402;16.678;2024-01-07T04:10:56;6.73;;;3.20;;
19343;SDS011;9808;52.402;16.678;2024-01-07T04:13:23;6.83;;;3.23;;
19343;SDS011;9808;52.402;16.678;2024-01-07T04:15:50;6.60;;;2.50;;
19343;SDS011;9808;52.402;16.678;2024-01-07T04:18:17;10.53;;;2.80;;
19343;SDS011;9808;52.402;16.678;2024-01-07T04:20:45;7.60;;;3.20;;
19343;SDS011;9808;52.402;16.678;2024-01-07T04:23:12;6.87;;;2.47;;
19343;SDS011;9808;52.402;16.678;2024-01-07T04:25:39;8.03;;;3.13;;
19343;SDS011;9808;52.402;16.678;2024-01-07T04:28:08;7.83;;;2.93;;
19343;SDS011;9808;52.402;16.678;2024-01-07T04:30:36;7.67;;;3.00;;
19343;SDS011;9808;52.402;16.678;2024-01-07T04:33:03;9.27;;;2.90;;
19343;SDS011;9808;52.402;16.678;2024-01-07T04:35:30;6.73;;;2.40;;
19343;SDS011;9808;52.402;16.678;2024-01-07T04:37:57;6.47;;;2.70;;
19343;SDS011;9808;52.402;16.678;2024-01-07T04:40:25;6.70;;;2.83;;
19343;SDS011;9808;52.402;16.678;2024-01-07T04:42:52;8.57;;;2.87;;
19343;SDS011;9808;52.402;16.678;2024-01-07T04:45:19;5.67;;;2.73;;
19343;SDS011;9808;52.402;16.678;2024-01-07T04:47:46;5.37;;;2.20;;
19343;SDS011;9808;52.402;16.678;2024-01-07T04:50:14;7.20;;;2.87;;
19343;SDS011;9808;52.402;16.678;2024-01-07T04:52:45;6.50;;;2.67;;
19343;SDS011;9808;52.402;16.678;2024-01-07T04:55:13;5.73;;;2.50;;
19343;SDS011;9808;52.402;16.678;2024-01-07T04:57:40;6.33;;;2.80;;
19343;SDS011;9808;52.402;16.678;2024-01-07T05:00:08;8.03;;;3.23;;
19343;SDS011;9808;52.402;16.678;2024-01-07T05:02:35;5.73;;;2.57;;
19343;SDS011;9808;52.402;16.678;2024-01-07T05:05:02;7.77;;;3.20;;
19343;SDS011;9808;52.402;16.678;2024-01-07T05:07:30;6.07;;;3.17;;
19343;SDS011;9808;52.402;16.678;2024-01-07T05:09:57;7.53;;;3.07;;
19343;SDS011;9808;52.402;16.678;2024-01-07T05:12:24;6.77;;;3.07;;
19343;SDS011;9808;52.402;16.678;2024-01-07T05:14:52;7.07;;;3.03;;
19343;SDS011;9808;52.402;16.678;2024-01-07T05:17:19;4.83;;;2.17;;
19343;SDS011;9808;52.402;16.678;2024-01-07T05:19:46;7.53;;;3.30;;
19343;SDS011;9808;52.402;16.678;2024-01-07T05:22:14;9.43;;;3.30;;
19343;SDS011;9808;52.402;16.678;2024-01-07T05:24:41;7.13;;;3.20;;
19343;SDS011;9808;52.402;16.678;2024-01-07T05:27:09;7.97;;;3.23;;
19343;SDS011;9808;52.402;16.678;2024-01-07T05:29:36;7.43;;;3.10;;
19343;SDS011;9808;52.402;16.678;2024-01-07T05:32:03;7.30;;;3.20;;
19343;SDS011;9808;52.402;16.678;2024-01-07T05:34:31;8.87;;;3.40;;
19343;SDS011;9808;52.402;16.678;2024-01-07T05:36:58;9.47;;;3.67;;
19343;SDS011;9808;52.402;16.678;2024-01-07T05:39:26;7.27;;;3.30;;
19343;SDS011;9808;52.402;16.678;2024-01-07T05:41:53;6.93;;;3.43;;
19343;SDS011;9808;52.402;16.678;2024-01-07T05:44:20;10.07;;;3.67;;
19343;SDS011;9808;52.402;16.678;2024-01-07T05:46:47;6.80;;;2.73;;
19343;SDS011;9808;52.402;16.678;2024-01-07T05:49:14;8.43;;;4.00;;
19343;SDS011;9808;52.402;16.678;2024-01-07T05:51:42;6.70;;;3.23;;
19343;SDS011;9808;52.402;16.678;2024-01-07T05:54:09;8.77;;;3.93;;
19343;SDS011;9808;52.402;16.678;2024-01-07T05:56:40;11.83;;;4.07;;
19343;SDS011;9808;52.402;16.678;2024-01-07T05:59:07;7.10;;;3.23;;
19343;SDS011;9808;52.402;16.678;2024-01-07T06:01:34;9.83;;;4.27;;
19343;SDS011;9808;52.402;16.678;2024-01-07T06:04:02;8.13;;;3.00;;
19343;SDS011;9808;52.402;16.678;2024-01-07T06:06:29;10.93;;;3.47;;
19343;SDS011;9808;52.402;16.678;2024-01-07T06:08:57;9.87;;;3.80;;
19343;SDS011;9808;52.402;16.678;2024-01-07T06:11:24;10.63;;;4.17;;
19343;SDS011;9808;52.402;16.678;2024-01-07T06:13:51;8.40;;;3.87;;
19343;SDS011;9808;52.402;16.678;2024-01-07T06:16:19;8.40;;;3.57;;
19343;SDS011;9808;52.402;16.678;2024-01-07T06:18:46;11.30;;;4.33;;
19343;SDS011;9808;52.402;16.678;2024-01-07T06:21:13;9.43;;;4.10;;
19343;SDS011;9808;52.402;16.678;2024-01-07T06:23:40;11.27;;;4.67;;
19343;SDS011;9808;52.402;16.678;2024-01-07T06:26:07;8.50;;;3.47;;
19343;SDS011;9808;52.402;16.678;2024-01-07T06:28:35;14.23;;;4.40;;
19343;SDS011;9808;52.402;16.678;2024-01-07T06:31:02;10.97;;;4.03;;
19343;SDS011;9808;52.402;16.678;2024-01-07T06:33:30;9.27;;;4.03;;
19343;SDS011;9808;52.402;16.678;2024-01-07T06:35:58;13.13;;;4.60;;
19343;SDS011;9808;52.402;16.678;2024-01-07T06:38:25;13.53;;;5.40;;
19343;SDS011;9808;52.402;16.678;2024-01-07T06:40:52;7.20;;;3.87;;
19343;SDS011;9808;52.402;16.678;2024-01-07T06:43:27;11.17;;;4.63;;
19343;SDS011;9808;52.402;16.678;2024-01-07T06:45:54;12.57;;;4.97;;
19343;SDS011;9808;52.402;16.678;2024-01-07T06:48:22;11.60;;;5.03;;
19343;SDS011;9808;52.402;16.678;2024-01-07T06:50:49;8.23;;;4.07;;
19343;SDS011;9808;52.402;16.678;2024-01-07T06:53:16;9.27;;;3.90;;
19343;SDS011;9808;52.402;16.678;2024-01-07T06:55:44;13.33;;;5.13;;
19343;SDS011;9808;52.402;16.678;2024-01-07T06:58:11;9.17;;;4.27;;
19343;SDS011;9808;52.402;16.678;2024-01-07T07:00:38;12.83;;;5.03;;
19343;SDS011;9808;52.402;16.678;2024-01-07T07:03:06;11.23;;;5.00;;
19343;SDS011;9808;52.402;16.678;2024-01-07T07:05:33;11.97;;;5.10;;
19343;SDS011;9808;52.402;16.678;2024-01-07T07:08:01;11.13;;;4.70;;
19343;SDS011;9808;52.402;16.678;2024-01-07T07:10:29;11.37;;;5.23;;
19343;SDS011;9808;52.402;16.678;2024-01-07T07:12:57;12.13;;;5.43;;
19343;SDS011;9808;52.402;16.678;2024-01-07T07:15:25;11.40;;;4.37;;
19343;SDS011;9808;52.402;16.678;2024-01-07T07:17:54;13.93;;;4.30;;
19343;SDS011;9808;52.402;16.678;2024-01-07T07:20:21;11.77;;;5.00;;
19343;SDS011;9808;52.402;16.678;2024-01-07T07:22:49;15.93;;;4.93;;
19343;SDS011;9808;52.402;16.678;2024-01-07T07:25:16;12.30;;;4.70;;
19343;SDS011;9808;52.402;16.678;2024-01-07T07:27:44;11.40;;;4.97;;
19343;SDS011;9808;52.402;16.678;2024-01-07T07:30:11;11.33;;;5.27;;
19343;SDS011;9808;52.402;16.678;2024-01-07T07:32:39;11.50;;;5.37;;
19343;SDS011;9808;52.402;16.678;2024-01-07T07:35:07;13.87;;;5.20;;
19343;SDS011;9808;52.402;16.678;2024-01-07T07:37:34;11.23;;;5.40;;
19343;SDS011;9808;52.402;16.678;2024-01-07T07:40:02;17.07;;;5.23;;
19343;SDS011;9808;52.402;16.678;2024-01-07T07:42:29;11.23;;;5.13;;
19343;SDS011;9808;52.402;16.678;2024-01-07T07:44:57;10.43;;;4.90;;
19343;SDS011;9808;52.402;16.678;2024-01-07T07:47:24;12.50;;;5.33;;
19343;SDS011;9808;52.402;16.678;2024-01-07T07:49:51;13.87;;;5.20;;
19343;SDS011;9808;52.402;16.678;2024-01-07T07:52:18;12.63;;;5.80;;
19343;SDS011;9808;52.402;16.678;2024-01-07T07:54:49;12.03;;;5.17;;
19343;SDS011;9808;52.402;16.678;2024-01-07T07:57:16;8.67;;;3.67;;
19343;SDS011;9808;52.402;16.678;2024-01-07T07:59:47;8.60;;;4.20;;
19343;SDS011;9808;52.402;16.678;2024-01-07T08:02:15;9.90;;;4.17;;
19343;SDS011;9808;52.402;16.678;2024-01-07T08:04:43;10.07;;;4.90;;
19343;SDS011;9808;52.402;16.678;2024-01-07T08:07:10;7.63;;;2.57;;
19343;SDS011;9808;52.402;16.678;2024-01-07T08:09:38;11.73;;;4.93;;
19343;SDS011;9808;52.402;16.678;2024-01-07T08:12:05;10.67;;;4.93;;
19343;SDS011;9808;52.402;16.678;2024-01-07T08:14:33;13.40;;;5.27;;
19343;SDS011;9808;52.402;16.678;2024-01-07T08:17:00;14.63;;;5.40;;
19343;SDS011;9808;52.402;16.678;2024-01-07T08:19:27;15.10;;;5.70;;
19343;SDS011;9808;52.402;16.678;2024-01-07T08:21:55;14.57;;;4.57;;
19343;SDS011;9808;52.402;16.678;2024-01-07T08:24:23;10.07;;;4.87;;
19343;SDS011;9808;52.402;16.678;2024-01-07T08:26:50;12.83;;;5.10;;
19343;SDS011;9808;52.402;16.678;2024-01-07T08:29:18;12.10;;;5.23;;
19343;SDS011;9808;52.402;16.678;2024-01-07T08:31:45;8.93;;;3.83;;
19343;SDS011;9808;52.402;16.678;2024-01-07T08:34:12;12.27;;;5.33;;
19343;SDS011;9808;52.402;16.678;2024-01-07T08:36:41;12.57;;;4.70;;
19343;SDS011;9808;52.402;16.678;2024-01-07T08:39:08;13.23;;;4.97;;
19343;SDS011;9808;52.402;16.678;2024-01-07T08:41:37;15.67;;;5.87;;
19343;SDS011;9808;52.402;16.678;2024-01-07T08:44:04;6.80;;;3.73;;
19343;SDS011;9808;52.402;16.678;2024-01-07T08:46:31;13.10;;;5.57;;
19343;SDS011;9808;52.402;16.678;2024-01-07T08:48:58;16.20;;;5.17;;
19343;SDS011;9808;52.402;16.678;2024-01-07T08:51:26;10.90;;;4.93;;
19343;SDS011;9808;52.402;16.678;2024-01-07T08:53:53;10.40;;;4.53;;
19343;SDS011;9808;52.402;16.678;2024-01-07T08:56:21;10.83;;;4.40;;
19343;SDS011;9808;52.402;16.678;2024-01-07T08:58:48;7.83;;;3.37;;
19343;SDS011;9808;52.402;16.678;2024-01-07T09:01:15;6.87;;;3.07;;
19343;SDS011;9808;52.402;16.678;2024-01-07T09:03:43;9.47;;;3.80;;
19343;SDS011;9808;52.402;16.678;2024-01-07T09:06:10;9.60;;;4.30;;
19343;SDS011;9808;52.402;16.678;2024-01-07T09:08:38;9.20;;;3.63;;
19343;SDS011;9808;52.402;16.678;2024-01-07T09:11:05;6.50;;;2.83;;
19343;SDS011;9808;52.402;16.678;2024-01-07T09:13:33;5.83;;;2.67;;
19343;SDS011;9808;52.402;16.678;2024-01-07T09:16:00;7.87;;;3.70;;
19343;SDS011;9808;52.402;16.678;2024-01-07T09:18:27;10.03;;;3.80;;
19343;SDS011;9808;52.402;16.678;2024-01-07T09:20:55;10.13;;;4.03;;
19343;SDS011;9808;52.402;16.678;2024-01-07T09:23:22;6.63;;;2.97;;
19343;SDS011;9808;52.402;16.678;2024-01-07T09:25:50;5.30;;;2.60;;
19343;SDS011;9808;52.402;16.678;2024-01-07T09:28:17;8.37;;;4.03;;
19343;SDS011;9808;52.402;16.678;2024-01-07T09:30:44;6.10;;;2.90;;
19343;SDS011;9808;52.402;16.678;2024-01-07T09:33:12;9.07;;;3.30;;
19343;SDS011;9808;52.402;16.678;2024-01-07T09:35:41;10.30;;;4.03;;
19343;SDS011;9808;52.402;16.678;2024-01-07T09:38:09;9.77;;;4.20;;
19343;SDS011;9808;52.402;16.678;2024-01-07T09:40:38;7.97;;;3.83;;
19343;SDS011;9808;52.402;16.678;2024-01-07T09:43:06;12.37;;;3.10;;
19343;SDS011;9808;52.402;16.678;2024-01-07T09:45:35;9.07;;;3.97;;
19343;SDS011;9808;52.402;16.678;2024-01-07T09:48:02;12.53;;;4.47;;
19343;SDS011;9808;52.402;16.678;2024-01-07T09:50:30;8.80;;;3.73;;
19343;SDS011;9808;52.402;16.678;2024-01-07T09:52:57;10.57;;;4.10;;
19343;SDS011;9808;52.402;16.678;2024-01-07T09:55:26;8.77;;;3.30;;
19343;SDS011;9808;52.402;16.678;2024-01-07T09:57:54;13.27;;;5.00;;
19343;SDS011;9808;52.402;16.678;2024-01-07T10:00:22;10.00;;;4.50;;
19343;SDS011;9808;52.402;16.678;2024-01-07T10:02:49;11.57;;;4.37;;
19343;SDS011;9808;52.402;16.678;2024-01-07T10:05:16;8.27;;;3.80;;
19343;SDS011;9808;52.402;16.678;2024-01-07T10:07:43;9.97;;;4.87;;
19343;SDS011;9808;52.402;16.678;2024-01-07T10:10:14;9.27;;;3.67;;
19343;SDS011;9808;52.402;16.678;2024-01-07T10:12:45;10.73;;;4.63;;
19343;SDS011;9808;52.402;16.678;2024-01-07T10:15:13;9.23;;;3.57;;
19343;SDS011;9808;52.402;16.678;2024-01-07T10:17:41;10.60;;;4.80;;
19343;SDS011;9808;52.402;16.678;2024-01-07T10:20:09;12.03;;;4.90;;
19343;SDS011;9808;52.402;16.678;2024-01-07T10:22:37;10.90;;;4.47;;
19343;SDS011;9808;52.402;16.678;2024-01-07T10:25:04;9.53;;;4.17;;
19343;SDS011;9808;52.402;16.678;2024-01-07T10:27:35;10.30;;;4.23;;
19343;SDS011;9808;52.402;16.678;2024-01-07T10:30:04;7.10;;;3.57;;
19343;SDS011;9808;52.402;16.678;2024-01-07T10:32:32;13.13;;;4.73;;
19343;SDS011;9808;52.402;16.678;2024-01-07T10:35:05;12.87;;;4.70;;
19343;SDS011;9808;52.402;16.678;2024-01-07T10:37:32;11.87;;;5.00;;
19343;SDS011;9808;52.402;16.678;2024-01-07T10:40:00;15.53;;;6.00;;
19343;SDS011;9808;52.402;16.678;2024-01-07T10:42:31;17.53;;;6.20;;
19343;SDS011;9808;52.402;16.678;2024-01-07T10:45:02;16.10;;;5.67;;
19343;SDS011;9808;52.402;16.678;2024-01-07T10:47:30;10.93;;;4.27;;
19343;SDS011;9808;52.402;16.678;2024-01-07T10:49:58;12.63;;;4.20;;
19343;SDS011;9808;52.402;16.678;2024-01-07T10:52:27;12.70;;;4.83;;
19343;SDS011;9808;52.402;16.678;2024-01-07T10:55:00;7.10;;;3.30;;
19343;SDS011;9808;52.402;16.678;2024-01-07T10:57:34;6.90;;;3.20;;
19343;SDS011;9808;52.402;16.678;2024-01-07T11:00:03;10.03;;;4.10;;
19343;SDS011;9808;52.402;16.678;2024-01-07T11:02:37;10.70;;;4.43;;
19343;SDS011;9808;52.402;16.678;2024-01-07T11:05:11;11.20;;;4.53;;
19343;SDS011;9808;52.402;16.678;2024-01-07T11:07:49;8.73;;;3.80;;
19343;SDS011;9808;52.402;16.678;2024-01-07T11:10:22;10.83;;;4.73;;
19343;SDS011;9808;52.402;16.678;2024-01-07T11:13:04;9.53;;;3.80;;
19343;SDS011;9808;52.402;16.678;2024-01-07T11:18:33;8.27;;;3.80;;
19343;SDS011;9808;52.402;16.678;2024-01-07T11:21:01;12.90;;;5.17;;
19343;SDS011;9808;52.402;16.678;2024-01-07T11:24:03;9.50;;;3.90;;
19343;SDS011;9808;52.402;16.678;2024-01-07T11:26:23;10.53;;;3.97;;
19343;SDS011;9808;52.402;16.678;2024-01-07T11:28:51;15.03;;;5.27;;
19343;SDS011;9808;52.402;16.678;2024-01-07T11:31:19;17.07;;;4.43;;
19343;SDS011;9808;52.402;16.678;2024-01-07T11:33:48;14.50;;;5.60;;
19343;SDS011;9808;52.402;16.678;2024-01-07T11:36:16;11.87;;;5.37;;
19343;SDS011;9808;52.402;16.678;2024-01-07T11:38:44;13.93;;;5.50;;
19343;SDS011;9808;52.402;16.678;2024-01-07T11:41:15;13.50;;;4.87;;
19343;SDS011;9808;52.402;16.678;2024-01-07T11:46:21;11.20;;;5.50;;
19343;SDS011;9808;52.402;16.678;2024-01-07T11:48:49;12.87;;;5.30;;
19343;SDS011;9808;52.402;16.678;2024-01-07T11:51:17;12.63;;;4.80;;
19343;SDS011;9808;52.402;16.678;2024-01-07T11:53:46;14.03;;;5.27;;
19343;SDS011;9808;52.402;16.678;2024-01-07T11:56:14;13.37;;;4.87;;
19343;SDS011;9808;52.402;16.678;2024-01-07T11:58:41;10.53;;;4.87;;
19343;SDS011;9808;52.402;16.678;2024-01-07T12:01:08;12.23;;;5.70;;
19343;SDS011;9808;52.402;16.678;2024-01-07T12:03:36;11.03;;;4.57;;
19343;SDS011;9808;52.402;16.678;2024-01-07T12:06:03;13.77;;;4.83;;
19343;SDS011;9808;52.402;16.678;2024-01-07T12:08:31;9.87;;;3.77;;
19343;SDS011;9808;52.402;16.678;2024-01-07T12:10:59;14.83;;;6.87;;
19343;SDS011;9808;52.402;16.678;2024-01-07T12:13:27;15.00;;;5.93;;
19343;SDS011;9808;52.402;16.678;2024-01-07T12:15:54;20.93;;;7.47;;
19343;SDS011;9808;52.402;16.678;2024-01-07T12:18:22;17.43;;;4.67;;
19343;SDS011;9808;52.402;16.678;2024-01-07T12:20:55;9.40;;;3.97;;
19343;SDS011;9808;52.402;16.678;2024-01-07T12:23:24;12.50;;;5.20;;
19343;SDS011;9808;52.402;16.678;2024-01-07T12:25:55;14.97;;;6.40;;
19343;SDS011;9808;52.402;16.678;2024-01-07T12:28:22;11.47;;;3.40;;
19343;SDS011;9808;52.402;16.678;2024-01-07T12:30:50;11.43;;;4.53;;
19343;SDS011;9808;52.402;16.678;2024-01-07T12:33:17;13.60;;;5.57;;
19343;SDS011;9808;52.402;16.678;2024-01-07T12:35:47;12.20;;;5.33;;
19343;SDS011;9808;52.402;16.678;2024-01-07T12:38:14;13.20;;;5.53;;
19343;SDS011;9808;52.402;16.678;2024-01-07T12:40:41;13.83;;;6.30;;
19343;SDS011;9808;52.402;16.678;2024-01-07T12:43:08;13.87;;;5.50;;
19343;SDS011;9808;52.402;16.678;2024-01-07T12:45:36;19.23;;;6.57;;
19343;SDS011;9808;52.402;16.678;2024-01-07T12:48:03;13.50;;;5.80;;
19343;SDS011;9808;52.402;16.678;2024-01-07T12:50:31;11.17;;;5.37;;
19343;SDS011;9808;52.402;16.678;2024-01-07T12:52:59;11.90;;;5.37;;
19343;SDS011;9808;52.402;16.678;2024-01-07T12:55:26;15.80;;;6.10;;
19343;SDS011;9808;52.402;16.678;2024-01-07T12:57:53;16.10;;;6.20;;
19343;SDS011;9808;52.402;16.678;2024-01-07T13:00:21;15.40;;;5.63;;
19343;SDS011;9808;52.402;16.678;2024-01-07T13:02:48;16.13;;;6.47;;
19343;SDS011;9808;52.402;16.678;2024-01-07T13:05:16;13.27;;;5.27;;
19343;SDS011;9808;52.402;16.678;2024-01-07T13:07:43;16.97;;;5.67;;
19343;SDS011;9808;52.402;16.678;2024-01-07T13:10:10;11.40;;;4.63;;
19343;SDS011;9808;52.402;16.678;2024-01-07T13:12:38;13.00;;;4.43;;
19343;SDS011;9808;52.402;16.678;2024-01-07T13:15:15;12.03;;;5.37;;
19343;SDS011;9808;52.402;16.678;2024-01-07T13:17:43;9.60;;;4.07;;
19343;SDS011;9808;52.402;16.678;2024-01-07T13:20:11;14.07;;;5.50;;
19343;SDS011;9808;52.402;16.678;2024-01-07T13:22:38;9.17;;;4.17;;
19343;SDS011;9808;52.402;16.678;2024-01-07T13:25:06;13.93;;;5.83;;
19343;SDS011;9808;52.402;16.678;2024-01-07T13:27:33;18.00;;;6.80;;
19343;SDS011;9808;52.402;16.678;2024-01-07T13:30:03;15.97;;;5.90;;
19343;SDS011;9808;52.402;16.678;2024-01-07T13:32:30;11.30;;;4.80;;
19343;SDS011;9808;52.402;16.678;2024-01-07T13:35:04;14.67;;;7.03;;
19343;SDS011;9808;52.402;16.678;2024-01-07T13:37:31;16.10;;;6.30;;
19343;SDS011;9808;52.402;16.678;2024-01-07T13:39:58;17.83;;;6.20;;
19343;SDS011;9808;52.402;16.678;2024-01-07T13:42:27;18.57;;;7.00;;
19343;SDS011;9808;52.402;16.678;2024-01-07T13:44:54;15.07;;;6.23;;
19343;SDS011;9808;52.402;16.678;2024-01-07T13:47:21;13.67;;;5.60;;
19343;SDS011;9808;52.402;16.678;2024-01-07T13:49:49;19.70;;;6.93;;
19343;SDS011;9808;52.402;16.678;2024-01-07T13:52:16;15.10;;;6.13;;
19343;SDS011;9808;52.402;16.678;2024-01-07T13:54:44;23.87;;;8.97;;
19343;SDS011;9808;52.402;16.678;2024-01-07T13:57:11;13.27;;;6.03;;
19343;SDS011;9808;52.402;16.678;2024-01-07T13:59:39;22.43;;;7.53;;
19343;SDS011;9808;52.402;16.678;2024-01-07T14:02:07;15.63;;;6.27;;
19343;SDS011;9808;52.402;16.678;2024-01-07T14:04:35;20.37;;;8.03;;
19343;SDS011;9808;52.402;16.678;2024-01-07T14:07:03;18.07;;;5.63;;
19343;SDS011;9808;52.402;16.678;2024-01-07T14:09:30;20.10;;;7.37;;
19343;SDS011;9808;52.402;16.678;2024-01-07T14:11:58;11.53;;;4.67;;
19343;SDS011;9808;52.402;16.678;2024-01-07T14:14:25;20.53;;;6.70;;
19343;SDS011;9808;52.402;16.678;2024-01-07T14:16:53;16.73;;;6.90;;
19343;SDS011;9808;52.402;16.678;2024-01-07T14:19:20;16.70;;;6.80;;
19343;SDS011;9808;52.402;16.678;2024-01-07T14:21:48;14.83;;;5.30;;
19343;SDS011;9808;52.402;16.678;2024-01-07T14:24:17;18.07;;;7.47;;
19343;SDS011;9808;52.402;16.678;2024-01-07T14:26:45;21.07;;;7.37;;
19343;SDS011;9808;52.402;16.678;2024-01-07T14:29:12;17.23;;;6.10;;
19343;SDS011;9808;52.402;16.678;2024-01-07T14:31:43;15.37;;;5.80;;
19343;SDS011;9808;52.402;16.678;2024-01-07T14:34:12;11.90;;;4.33;;
19343;SDS011;9808;52.402;16.678;2024-01-07T14:36:40;13.47;;;5.97;;
19343;SDS011;9808;52.402;16.678;2024-01-07T14:39:10;12.03;;;4.83;;
19343;SDS011;9808;52.402;16.678;2024-01-07T14:41:40;13.33;;;5.77;;
19343;SDS011;9808;52.402;16.678;2024-01-07T14:44:07;17.93;;;6.53;;
19343;SDS011;9808;52.402;16.678;2024-01-07T14:46:38;10.60;;;4.17;;
19343;SDS011;9808;52.402;16.678;2024-01-07T14:49:06;15.70;;;6.53;;